Pago Redondo, Argentina
Current Conditions -  °F | °C
As of 11:00 AM on Thursday 30 Oct 2014 (Local Time) from SARL Reporting Station
Overcast Overcast  
Wind Chill: 70°   Ceiling: 10000
Heat Index: 70°   Visibility: 6mi
Dew Point: 66°   Wind: 23mph
Humidity: 88%   Direction: 50°NE
Pressure: 29.74"   Gusts: NA
Location:  29.57°S, 59.22°W
Report Text: SARL 301400Z 05020KT 9999 SCT020 OVC10021/19 Q1007
Loading
Personal Weather Stations






























Interactive Weather Map
Tropical Storm Tracking
New forecast layout! Learn more

10-Day Weather Forecast

Advertisements
Track Severe Weather on mobile